Strona główna
METAR-TAF:

METAR-TAF

Lotnisko :

Port lotniczy Bahrajn

Bahrajn, Bahrajn

Szerokość geograficzna: 26-16N, Długość geograficzna: 050-39E, wysokość: 2 m

Aktualna obserwacja pogody

Raport powstał 13 minut temu, godzina 10:00 UTC
Wiatr 15 kt od północno-północny zachód
Temperatura 24°C
Wilgotność 54%
Ciśnienie 1019 hPa
Widzialność 10 km lub więcej
Brak chmur poniżej 1500 m i brak chmur cumulonimbus

METAR: OBBI 121000Z 33015KT CAVOK 24/14 Q1019 NOSIG

czas: 13:13 (10:13 UTC)

Prognoza

Raport powstał 5 godziny i 13 minut temu, godzina 05:00 UTC
Prognoza ważna od 12 godzina 06 UTC do 13 godzina 12 UTC
Wiatr 15 kt od północno-północny zachód
Widzialność 10 km lub więcej
Brak chmur poniżej 1500 m i brak chmur cumulonimbus

TAF: OBBI 120500Z 1206/1312 34015KT CAVOK

Obserwacja i prognoza pogody dla ponad 4000 lotnisk (raport METAR i TAF).

Dostępne stacje oznaczono żółtymi i czerwonymi punktami na mapie.

Najedź kursorem aby zobaczyć nazwę stacji.

Kliknij aby zobaczyć obserwacje i prognozy pogody.

Aby zmienić mapę: kliknij na zielony przycisk z czarnym krzyżykiem, aby powiększyć; na zielony przycisk z myślnikiem, aby pomniejszyć; na zielone strzałki, aby przejść do map sąsiednich.


METAR-TAF: